sensor_id;sensor_type;location;lat;lon;timestamp;pressure;altitude;pressure_sealevel;temperature;humidity
41636;BME280;27623;51.966;4.602;2023-03-01T00:01:52;63471.56;;;4.17;74.13
41636;BME280;27623;51.966;4.602;2023-03-01T00:04:17;63423.16;;;3.81;75.33
41636;BME280;27623;51.966;4.602;2023-03-01T00:06:43;63390.41;;;3.88;75.59
41636;BME280;27623;51.966;4.602;2023-03-01T00:09:11;63326.38;;;3.44;76.47
41636;BME280;27623;51.966;4.602;2023-03-01T00:11:37;63381.94;;;3.40;77.88
41636;BME280;27623;51.966;4.602;2023-03-01T00:14:03;63409.84;;;3.64;76.52
41636;BME280;27623;51.966;4.602;2023-03-01T00:16:40;63413.06;;;3.67;76.95
41636;BME280;27623;51.966;4.602;2023-03-01T00:19:08;63413.09;;;3.74;76.78
41636;BME280;27623;51.966;4.602;2023-03-01T00:21:35;63342.75;;;3.48;76.87
41636;BME280;27623;51.966;4.602;2023-03-01T00:24:01;63363.78;;;3.32;77.72
41636;BME280;27623;51.966;4.602;2023-03-01T00:26:27;63392.75;;;3.71;76.88
41636;BME280;27623;51.966;4.602;2023-03-01T00:28:53;63387.69;;;3.57;77.94
41636;BME280;27623;51.966;4.602;2023-03-01T00:31:22;63397.59;;;3.76;76.93
41636;BME280;27623;51.966;4.602;2023-03-01T00:33:52;63449.78;;;3.80;75.91
41636;BME280;27623;51.966;4.602;2023-03-01T00:36:18;63384.28;;;3.44;77.50
41636;BME280;27623;51.966;4.602;2023-03-01T00:38:45;63408.94;;;3.72;76.93
41636;BME280;27623;51.966;4.602;2023-03-01T00:41:14;63398.13;;;3.62;76.92
41636;BME280;27623;51.966;4.602;2023-03-01T00:43:40;63403.38;;;3.72;77.07
41636;BME280;27623;51.966;4.602;2023-03-01T00:46:07;63373.31;;;3.60;76.90
41636;BME280;27623;51.966;4.602;2023-03-01T00:48:34;63394.72;;;3.57;77.30
41636;BME280;27623;51.966;4.602;2023-03-01T00:53:39;63364.16;;;3.30;78.18
41636;BME280;27623;51.966;4.602;2023-03-01T00:56:06;63363.97;;;3.70;76.84
41636;BME280;27623;51.966;4.602;2023-03-01T00:58:33;63385.34;;;3.60;77.25
41636;BME280;27623;51.966;4.602;2023-03-01T01:00:59;63333.75;;;3.35;77.71
41636;BME280;27623;51.966;4.602;2023-03-01T01:03:24;63331.94;;;3.02;79.45
41636;BME280;27623;51.966;4.602;2023-03-01T01:05:51;63339.16;;;3.12;80.05
41636;BME280;27623;51.966;4.602;2023-03-01T01:08:19;63395.63;;;3.41;77.98
41636;BME280;27623;51.966;4.602;2023-03-01T01:10:45;63347.22;;;3.33;78.14
41636;BME280;27623;51.966;4.602;2023-03-01T01:13:11;63304.09;;;3.00;79.37
41636;BME280;27623;51.966;4.602;2023-03-01T01:15:37;63263.84;;;2.71;81.25
41636;BME280;27623;51.966;4.602;2023-03-01T01:18:03;63369.88;;;3.33;79.32
41636;BME280;27623;51.966;4.602;2023-03-01T01:20:29;63402.47;;;3.66;76.80
41636;BME280;27623;51.966;4.602;2023-03-01T01:22:54;63404.97;;;3.66;76.65
41636;BME280;27623;51.966;4.602;2023-03-01T01:25:20;63304.97;;;3.13;78.63
41636;BME280;27623;51.966;4.602;2023-03-01T01:27:45;63349.75;;;3.19;78.82
41636;BME280;27623;51.966;4.602;2023-03-01T01:30:11;63331.03;;;2.97;79.31
41636;BME280;27623;51.966;4.602;2023-03-01T01:32:37;63331.22;;;2.99;79.83
41636;BME280;27623;51.966;4.602;2023-03-01T01:35:02;63320.81;;;2.87;79.68
41636;BME280;27623;51.966;4.602;2023-03-01T01:37:28;63340.94;;;3.08;79.40
41636;BME280;27623;51.966;4.602;2023-03-01T01:40:00;63333.56;;;3.04;79.26
41636;BME280;27623;51.966;4.602;2023-03-01T01:42:26;63316.84;;;2.88;80.15
41636;BME280;27623;51.966;4.602;2023-03-01T01:47:48;63315.25;;;3.01;80.12
41636;BME280;27623;51.966;4.602;2023-03-01T01:50:17;63328.88;;;2.95;79.65
41636;BME280;27623;51.966;4.602;2023-03-01T01:52:43;63311.47;;;2.97;78.91
41636;BME280;27623;51.966;4.602;2023-03-01T01:55:22;63327.09;;;3.05;79.49
41636;BME280;27623;51.966;4.602;2023-03-01T01:57:52;63347.41;;;3.22;78.87
41636;BME280;27623;51.966;4.602;2023-03-01T02:00:22;63331.94;;;2.95;78.56
41636;BME280;27623;51.966;4.602;2023-03-01T02:02:51;63327.09;;;3.05;78.08
41636;BME280;27623;51.966;4.602;2023-03-01T02:07:54;63322.78;;;2.94;78.70
41636;BME280;27623;51.966;4.602;2023-03-01T02:10:22;63351.75;;;3.12;78.05
41636;BME280;27623;51.966;4.602;2023-03-01T02:12:48;63317.03;;;3.19;77.85
41636;BME280;27623;51.966;4.602;2023-03-01T02:15:14;63355.50;;;3.36;77.37
41636;BME280;27623;51.966;4.602;2023-03-01T02:17:40;63303.19;;;2.94;78.16
41636;BME280;27623;51.966;4.602;2023-03-01T02:22:45;63300.13;;;2.94;78.13
41636;BME280;27623;51.966;4.602;2023-03-01T02:25:38;63325.47;;;2.96;78.34
41636;BME280;27623;51.966;4.602;2023-03-01T02:30:45;63351.00;;;3.16;77.51
41636;BME280;27623;51.966;4.602;2023-03-01T02:33:35;63241.19;;;2.50;79.82
41636;BME280;27623;51.966;4.602;2023-03-01T02:36:04;63317.56;;;2.70;79.53
41636;BME280;27623;51.966;4.602;2023-03-01T02:38:32;63294.94;;;2.84;79.23
41636;BME280;27623;51.966;4.602;2023-03-01T02:40:57;63288.28;;;2.83;79.44
41636;BME280;27623;51.966;4.602;2023-03-01T02:43:28;63284.88;;;2.77;79.80
41636;BME280;27623;51.966;4.602;2023-03-01T02:46:08;63286.84;;;2.62;79.97
41636;BME280;27623;51.966;4.602;2023-03-01T02:48:47;63262.56;;;2.54;80.81
41636;BME280;27623;51.966;4.602;2023-03-01T02:51:45;63300.31;;;2.75;80.01
41636;BME280;27623;51.966;4.602;2023-03-01T02:56:42;63274.25;;;2.62;80.15
41636;BME280;27623;51.966;4.602;2023-03-01T02:59:10;63260.25;;;2.42;80.34
41636;BME280;27623;51.966;4.602;2023-03-01T03:01:36;63270.31;;;2.42;80.71
41636;BME280;27623;51.966;4.602;2023-03-01T03:04:10;63276.22;;;2.40;80.92
41636;BME280;27623;51.966;4.602;2023-03-01T03:06:37;63269.41;;;2.44;81.65
41636;BME280;27623;51.966;4.602;2023-03-01T03:09:04;63267.97;;;2.45;80.82
41636;BME280;27623;51.966;4.602;2023-03-01T03:11:30;63248.56;;;2.33;80.98
41636;BME280;27623;51.966;4.602;2023-03-01T03:13:57;63252.53;;;2.39;81.45
41636;BME280;27623;51.966;4.602;2023-03-01T03:16:23;63264.38;;;2.51;80.50
41636;BME280;27623;51.966;4.602;2023-03-01T03:18:49;63246.06;;;2.40;80.37
41636;BME280;27623;51.966;4.602;2023-03-01T03:21:17;63279.81;;;2.34;81.24
41636;BME280;27623;51.966;4.602;2023-03-01T03:23:45;63278.03;;;2.66;80.30
41636;BME280;27623;51.966;4.602;2023-03-01T03:26:12;63277.50;;;2.72;80.36
41636;BME280;27623;51.966;4.602;2023-03-01T03:28:40;63270.84;;;2.50;80.67
41636;BME280;27623;51.966;4.602;2023-03-01T03:31:07;63233.31;;;2.31;81.21
41636;BME280;27623;51.966;4.602;2023-03-01T03:33:32;63278.75;;;2.40;81.29
41636;BME280;27623;51.966;4.602;2023-03-01T03:35:58;63276.78;;;2.62;80.64
41636;BME280;27623;51.966;4.602;2023-03-01T03:38:23;63242.84;;;2.45;80.57
41636;BME280;27623;51.966;4.602;2023-03-01T03:41:00;63287.72;;;2.54;80.48
41636;BME280;27623;51.966;4.602;2023-03-01T03:43:30;63272.63;;;2.54;79.38
41636;BME280;27623;51.966;4.602;2023-03-01T03:45:56;63238.69;;;2.36;81.16
41636;BME280;27623;51.966;4.602;2023-03-01T03:48:25;63241.94;;;2.25;81.76
41636;BME280;27623;51.966;4.602;2023-03-01T03:50:53;63255.22;;;2.35;81.76
41636;BME280;27623;51.966;4.602;2023-03-01T03:53:21;63274.78;;;2.56;80.86
41636;BME280;27623;51.966;4.602;2023-03-01T03:55:47;63288.63;;;2.52;80.59
41636;BME280;27623;51.966;4.602;2023-03-01T03:58:15;63257.72;;;2.35;80.91
41636;BME280;27623;51.966;4.602;2023-03-01T04:00:43;63242.13;;;2.27;81.61
41636;BME280;27623;51.966;4.602;2023-03-01T04:03:10;63248.94;;;2.46;80.55
41636;BME280;27623;51.966;4.602;2023-03-01T04:05:37;63206.38;;;2.05;82.05
41636;BME280;27623;51.966;4.602;2023-03-01T04:08:03;63263.31;;;2.42;80.90
41636;BME280;27623;51.966;4.602;2023-03-01T04:10:37;63239.22;;;2.22;81.07
41636;BME280;27623;51.966;4.602;2023-03-01T04:13:05;63232.94;;;2.12;82.00
41636;BME280;27623;51.966;4.602;2023-03-01T04:15:31;63238.31;;;2.17;81.58
41636;BME280;27623;51.966;4.602;2023-03-01T04:17:58;63180.53;;;2.02;82.95
41636;BME280;27623;51.966;4.602;2023-03-01T04:20:26;63239.41;;;2.18;82.32
41636;BME280;27623;51.966;4.602;2023-03-01T04:23:13;63256.47;;;2.31;81.04
41636;BME280;27623;51.966;4.602;2023-03-01T04:25:46;63239.94;;;2.32;80.84
41636;BME280;27623;51.966;4.602;2023-03-01T04:28:14;63229.72;;;2.16;80.33
41636;BME280;27623;51.966;4.602;2023-03-01T04:30:40;63223.03;;;1.93;81.70
41636;BME280;27623;51.966;4.602;2023-03-01T04:33:07;63246.41;;;2.38;80.88
41636;BME280;27623;51.966;4.602;2023-03-01T04:35:34;63198.50;;;2.08;81.76
41636;BME280;27623;51.966;4.602;2023-03-01T04:38:03;63209.22;;;1.96;81.87
41636;BME280;27623;51.966;4.602;2023-03-01T04:40:29;63162.03;;;1.54;84.09
41636;BME280;27623;51.966;4.602;2023-03-01T04:42:54;63253.53;;;1.84;83.46
41636;BME280;27623;51.966;4.602;2023-03-01T04:45:22;63242.28;;;2.23;82.28
41636;BME280;27623;51.966;4.602;2023-03-01T04:47:50;63244.44;;;2.25;81.87
41636;BME280;27623;51.966;4.602;2023-03-01T04:50:20;63222.50;;;1.92;83.00
41636;BME280;27623;51.966;4.602;2023-03-01T04:52:46;63219.28;;;1.96;82.45
41636;BME280;27623;51.966;4.602;2023-03-01T04:55:14;63209.06;;;2.01;82.97
41636;BME280;27623;51.966;4.602;2023-03-01T04:57:40;63231.66;;;2.08;82.54
41636;BME280;27623;51.966;4.602;2023-03-01T05:00:08;63274.19;;;1.98;82.31
41636;BME280;27623;51.966;4.602;2023-03-01T05:05:20;63254.81;;;2.08;82.42
41636;BME280;27623;51.966;4.602;2023-03-01T05:07:46;63213.19;;;1.95;82.55
41636;BME280;27623;51.966;4.602;2023-03-01T05:10:11;63202.22;;;1.76;84.08
41636;BME280;27623;51.966;4.602;2023-03-01T05:12:36;63202.22;;;1.76;83.88
41636;BME280;27623;51.966;4.602;2023-03-01T05:15:03;63176.75;;;1.63;83.72
41636;BME280;27623;51.966;4.602;2023-03-01T05:17:33;63255.38;;;2.16;81.97
41636;BME280;27623;51.966;4.602;2023-03-01T05:19:59;63210.84;;;1.91;82.19
41636;BME280;27623;51.966;4.602;2023-03-01T05:22:24;63224.28;;;1.75;82.88
41636;BME280;27623;51.966;4.602;2023-03-01T05:24:52;63192.91;;;1.93;82.32
41636;BME280;27623;51.966;4.602;2023-03-01T05:27:19;63215.69;;;1.81;82.31
41636;BME280;27623;51.966;4.602;2023-03-01T05:29:47;63211.53;;;1.72;82.67
41636;BME280;27623;51.966;4.602;2023-03-01T05:32:12;63173.50;;;1.67;82.99
41636;BME280;27623;51.966;4.602;2023-03-01T05:34:41;63182.63;;;1.55;83.71
41636;BME280;27623;51.966;4.602;2023-03-01T05:37:06;63190.53;;;1.67;83.18
41636;BME280;27623;51.966;4.602;2023-03-01T05:39:33;63187.13;;;1.54;83.48
41636;BME280;27623;51.966;4.602;2023-03-01T05:42:00;63179.78;;;1.71;82.94
41636;BME280;27623;51.966;4.602;2023-03-01T05:44:27;63167.94;;;1.60;82.50
41636;BME280;27623;51.966;4.602;2023-03-01T05:46:53;63139.63;;;1.57;82.03
41636;BME280;27623;51.966;4.602;2023-03-01T05:49:19;63217.25;;;1.68;82.51
41636;BME280;27623;51.966;4.602;2023-03-01T05:51:50;63221.44;;;1.84;80.71
41636;BME280;27623;51.966;4.602;2023-03-01T05:54:16;63204.72;;;1.61;80.90
41636;BME280;27623;51.966;4.602;2023-03-01T05:56:42;63158.41;;;1.39;82.30
41636;BME280;27623;51.966;4.602;2023-03-01T05:59:08;63184.06;;;1.47;82.13
41636;BME280;27623;51.966;4.602;2023-03-01T06:01:34;63160.59;;;1.55;82.08
41636;BME280;27623;51.966;4.602;2023-03-01T06:04:00;63197.31;;;1.50;81.47
41636;BME280;27623;51.966;4.602;2023-03-01T06:06:26;63152.84;;;1.31;82.67
41636;BME280;27623;51.966;4.602;2023-03-01T06:08:53;63209.53;;;1.52;82.57
41636;BME280;27623;51.966;4.602;2023-03-01T06:11:20;63202.00;;;1.59;80.60
41636;BME280;27623;51.966;4.602;2023-03-01T06:13:46;63168.50;;;1.60;80.55
41636;BME280;27623;51.966;4.602;2023-03-01T06:16:13;63143.00;;;1.48;80.62
41636;BME280;27623;51.966;4.602;2023-03-01T06:18:39;63160.38;;;1.38;80.89
41636;BME280;27623;51.966;4.602;2023-03-01T06:21:06;63158.06;;;1.34;81.31
41636;BME280;27623;51.966;4.602;2023-03-01T06:23:32;63188.56;;;1.53;80.10
41636;BME280;27623;51.966;4.602;2023-03-01T06:25:58;63154.50;;;1.61;79.99
41636;BME280;27623;51.966;4.602;2023-03-01T06:28:26;63172.00;;;1.26;81.05
41636;BME280;27623;51.966;4.602;2023-03-01T06:30:51;63108.56;;;1.01;82.60
41636;BME280;27623;51.966;4.602;2023-03-01T06:33:18;63165.22;;;1.36;81.25
41636;BME280;27623;51.966;4.602;2023-03-01T06:35:46;63171.84;;;1.23;80.95
41636;BME280;27623;51.966;4.602;2023-03-01T06:38:11;63184.44;;;1.59;80.40
41636;BME280;27623;51.966;4.602;2023-03-01T06:40:40;63183.69;;;1.49;79.89
41636;BME280;27623;51.966;4.602;2023-03-01T06:43:05;63156.25;;;1.30;81.43
41636;BME280;27623;51.966;4.602;2023-03-01T06:45:33;63187.25;;;1.28;82.27
41636;BME280;27623;51.966;4.602;2023-03-01T06:48:06;63167.75;;;1.50;81.66
41636;BME280;27623;51.966;4.602;2023-03-01T06:50:32;63123.97;;;1.28;81.94
41636;BME280;27623;51.966;4.602;2023-03-01T06:52:58;63176.53;;;1.40;82.03
41636;BME280;27623;51.966;4.602;2023-03-01T06:55:23;63129.16;;;1.16;82.80
41636;BME280;27623;51.966;4.602;2023-03-01T06:57:54;63132.06;;;1.35;82.13
41636;BME280;27623;51.966;4.602;2023-03-01T07:00:19;63135.63;;;1.15;82.90
41636;BME280;27623;51.966;4.602;2023-03-01T07:02:45;63158.59;;;1.49;81.40
41636;BME280;27623;51.966;4.602;2023-03-01T07:05:10;63182.94;;;1.24;82.22
41636;BME280;27623;51.966;4.602;2023-03-01T07:07:36;63141.03;;;1.42;82.12
41636;BME280;27623;51.966;4.602;2023-03-01T07:10:04;63160.75;;;1.44;82.28
41636;BME280;27623;51.966;4.602;2023-03-01T07:12:32;63142.66;;;1.43;81.76
41636;BME280;27623;51.966;4.602;2023-03-01T07:14:58;63151.81;;;1.45;82.63
41636;BME280;27623;51.966;4.602;2023-03-01T07:17:23;63148.53;;;1.27;83.69
41636;BME280;27623;51.966;4.602;2023-03-01T07:19:48;63152.88;;;1.53;83.26
41636;BME280;27623;51.966;4.602;2023-03-01T07:22:14;63219.59;;;1.59;82.48
41636;BME280;27623;51.966;4.602;2023-03-01T07:24:41;63175.97;;;1.46;83.67
41636;BME280;27623;51.966;4.602;2023-03-01T07:27:06;63172.78;;;1.57;83.59
41636;BME280;27623;51.966;4.602;2023-03-01T07:29:32;63196.81;;;1.63;83.29
41636;BME280;27623;51.966;4.602;2023-03-01T07:31:57;63155.91;;;1.46;84.71
41636;BME280;27623;51.966;4.602;2023-03-01T07:34:23;63181.91;;;1.52;84.04
41636;BME280;27623;51.966;4.602;2023-03-01T07:36:51;63123.25;;;1.11;86.60
41636;BME280;27623;51.966;4.602;2023-03-01T07:39:16;63175.47;;;1.53;85.88
41636;BME280;27623;51.966;4.602;2023-03-01T07:41:41;63180.50;;;1.60;85.07
41636;BME280;27623;51.966;4.602;2023-03-01T07:44:07;63174.06;;;1.75;85.74
41636;BME280;27623;51.966;4.602;2023-03-01T07:46:33;63180.88;;;1.79;85.29
41636;BME280;27623;51.966;4.602;2023-03-01T07:48:58;63222.81;;;1.69;85.78
41636;BME280;27623;51.966;4.602;2023-03-01T07:51:23;63209.75;;;1.76;86.39
41636;BME280;27623;51.966;4.602;2023-03-01T07:53:49;63228.44;;;1.98;85.81
41636;BME280;27623;51.966;4.602;2023-03-01T07:56:15;63226.47;;;2.05;85.61
41636;BME280;27623;51.966;4.602;2023-03-01T07:58:43;63256.47;;;2.24;84.61
41636;BME280;27623;51.966;4.602;2023-03-01T08:01:13;63235.28;;;2.23;84.67
41636;BME280;27623;51.966;4.602;2023-03-01T08:03:39;63261.13;;;2.26;85.29
41636;BME280;27623;51.966;4.602;2023-03-01T08:06:07;63285.75;;;2.47;85.44
41636;BME280;27623;51.966;4.602;2023-03-01T08:08:34;63293.81;;;2.55;85.23
41636;BME280;27623;51.966;4.602;2023-03-01T08:11:00;63260.97;;;2.59;85.50
41636;BME280;27623;51.966;4.602;2023-03-01T08:13:27;63303.38;;;2.68;86.00
41636;BME280;27623;51.966;4.602;2023-03-01T08:15:52;63294.22;;;2.67;86.25
41636;BME280;27623;51.966;4.602;2023-03-01T08:18:19;63269.06;;;2.67;86.28
41636;BME280;27623;51.966;4.602;2023-03-01T08:20:45;63280.91;;;2.78;86.65
41636;BME280;27623;51.966;4.602;2023-03-01T08:23:11;63349.91;;;2.86;86.94
41636;BME280;27623;51.966;4.602;2023-03-01T08:25:37;63275.53;;;2.87;86.76
41636;BME280;27623;51.966;4.602;2023-03-01T08:28:03;63329.44;;;2.95;86.84
41636;BME280;27623;51.966;4.602;2023-03-01T08:30:28;63344.53;;;2.95;86.90
41636;BME280;27623;51.966;4.602;2023-03-01T08:32:54;63335.38;;;3.08;86.84
41636;BME280;27623;51.966;4.602;2023-03-01T08:35:20;63390.19;;;3.15;86.53
41636;BME280;27623;51.966;4.602;2023-03-01T08:37:46;63323.69;;;3.06;86.95
41636;BME280;27623;51.966;4.602;2023-03-01T08:40:14;63372.56;;;3.15;87.29
41636;BME280;27623;51.966;4.602;2023-03-01T08:42:40;63334.63;;;3.12;86.66
41636;BME280;27623;51.966;4.602;2023-03-01T08:45:08;63383.56;;;3.20;87.25
41636;BME280;27623;51.966;4.602;2023-03-01T08:47:34;63327.81;;;3.15;85.87
41636;BME280;27623;51.966;4.602;2023-03-01T08:50:00;63374.56;;;3.21;85.77
41636;BME280;27623;51.966;4.602;2023-03-01T08:52:26;63379.78;;;3.31;86.14
41636;BME280;27623;51.966;4.602;2023-03-01T08:54:52;63402.44;;;3.38;86.08
41636;BME280;27623;51.966;4.602;2023-03-01T08:57:17;63426.38;;;3.49;84.73
41636;BME280;27623;51.966;4.602;2023-03-01T08:59:43;63411.09;;;3.60;84.37
41636;BME280;27623;51.966;4.602;2023-03-01T09:02:16;63383.75;;;3.72;84.16
41636;BME280;27623;51.966;4.602;2023-03-01T09:04:44;63421.72;;;3.82;83.77
41636;BME280;27623;51.966;4.602;2023-03-01T09:07:10;63427.66;;;3.95;82.80
41636;BME280;27623;51.966;4.602;2023-03-01T09:09:36;63446.91;;;4.03;81.02
41636;BME280;27623;51.966;4.602;2023-03-01T09:12:02;63472.09;;;4.18;78.72
41636;BME280;27623;51.966;4.602;2023-03-01T09:14:28;63485.44;;;4.28;75.33
41636;BME280;27623;51.966;4.602;2023-03-01T09:16:53;63485.44;;;4.42;76.54
41636;BME280;27623;51.966;4.602;2023-03-01T09:19:19;63510.84;;;4.52;77.17
41636;BME280;27623;51.966;4.602;2023-03-01T09:21:44;63503.25;;;4.59;74.43
41636;BME280;27623;51.966;4.602;2023-03-01T09:24:23;63527.59;;;4.74;73.37
41636;BME280;27623;51.966;4.602;2023-03-01T09:26:49;63568.66;;;4.84;72.31
41636;BME280;27623;51.966;4.602;2023-03-01T09:29:17;63585.09;;;4.95;72.32
41636;BME280;27623;51.966;4.602;2023-03-01T09:31:43;63555.69;;;5.01;70.58
41636;BME280;27623;51.966;4.602;2023-03-01T09:34:08;63547.19;;;5.09;69.70
41636;BME280;27623;51.966;4.602;2023-03-01T09:36:34;63587.22;;;5.26;70.36
41636;BME280;27623;51.966;4.602;2023-03-01T09:39:00;63592.28;;;5.40;71.21
41636;BME280;27623;51.966;4.602;2023-03-01T09:43:59;63638.44;;;5.64;70.49
41636;BME280;27623;51.966;4.602;2023-03-01T09:46:40;63629.94;;;5.80;69.16
41636;BME280;27623;51.966;4.602;2023-03-01T09:49:14;63671.81;;;6.00;68.48
41636;BME280;27623;51.966;4.602;2023-03-01T09:51:43;63711.53;;;6.11;67.39
41636;BME280;27623;51.966;4.602;2023-03-01T09:54:13;63688.94;;;6.28;66.06
41636;BME280;27623;51.966;4.602;2023-03-01T09:56:42;63697.78;;;6.39;65.38
41636;BME280;27623;51.966;4.602;2023-03-01T10:02:18;63769.13;;;6.68;61.77
41636;BME280;27623;51.966;4.602;2023-03-01T10:04:51;63759.69;;;6.92;62.43
41636;BME280;27623;51.966;4.602;2023-03-01T10:07:40;63786.41;;;7.12;61.47
41636;BME280;27623;51.966;4.602;2023-03-01T10:10:16;63838.13;;;7.35;59.08
41636;BME280;27623;51.966;4.602;2023-03-01T10:12:46;63839.72;;;7.50;59.36
41636;BME280;27623;51.966;4.602;2023-03-01T10:15:28;63855.63;;;7.68;59.62
41636;BME280;27623;51.966;4.602;2023-03-01T10:17:57;63859.75;;;7.83;57.10
41636;BME280;27623;51.966;4.602;2023-03-01T10:20:30;63889.97;;;8.02;57.32
41636;BME280;27623;51.966;4.602;2023-03-01T10:22:59;63904.78;;;8.18;57.06
41636;BME280;27623;51.966;4.602;2023-03-01T10:28:04;63942.75;;;8.54;56.11
41636;BME280;27623;51.966;4.602;2023-03-01T10:30:36;63951.59;;;8.72;55.67
41636;BME280;27623;51.966;4.602;2023-03-01T10:33:30;63996.19;;;8.85;55.47
41636;BME280;27623;51.966;4.602;2023-03-01T10:35:54;64001.94;;;9.02;54.78
41636;BME280;27623;51.966;4.602;2023-03-01T10:38:20;64036.38;;;9.15;54.09
41636;BME280;27623;51.966;4.602;2023-03-01T10:40:53;64039.25;;;9.35;54.98
41636;BME280;27623;51.966;4.602;2023-03-01T10:43:19;64028.81;;;9.53;54.08
41636;BME280;27623;51.966;4.602;2023-03-01T10:45:45;64097.03;;;9.77;53.44
41636;BME280;27623;51.966;4.602;2023-03-01T10:50:45;64076.06;;;9.90;50.60
41636;BME280;27623;51.966;4.602;2023-03-01T10:56:00;64159.94;;;10.26;49.84
41636;BME280;27623;51.966;4.602;2023-03-01T10:58:26;64188.59;;;10.50;49.07
41636;BME280;27623;51.966;4.602;2023-03-01T11:01:23;64193.88;;;10.53;49.34
41636;BME280;27623;51.966;4.602;2023-03-01T11:06:37;64194.06;;;10.86;47.39
41636;BME280;27623;51.966;4.602;2023-03-01T11:09:18;64245.16;;;11.03;47.86
41636;BME280;27623;51.966;4.602;2023-03-01T11:11:45;64223.25;;;11.18;47.91
41636;BME280;27623;51.966;4.602;2023-03-01T11:14:17;64295.41;;;11.52;46.70
41636;BME280;27623;51.966;4.602;2023-03-01T11:16:49;64335.16;;;11.51;45.18
41636;BME280;27623;51.966;4.602;2023-03-01T11:19:25;64330.84;;;11.78;45.79
41636;BME280;27623;51.966;4.602;2023-03-01T11:22:14;64362.34;;;11.91;44.99
41636;BME280;27623;51.966;4.602;2023-03-01T11:24:55;64341.97;;;11.84;45.04
41636;BME280;27623;51.966;4.602;2023-03-01T11:27:25;64350.56;;;12.06;44.75
41636;BME280;27623;51.966;4.602;2023-03-01T11:30:25;64370.25;;;12.10;44.32
41636;BME280;27623;51.966;4.602;2023-03-01T11:35:36;64373.25;;;12.32;43.12
41636;BME280;27623;51.966;4.602;2023-03-01T11:38:25;64394.06;;;12.61;41.09
41636;BME280;27623;51.966;4.602;2023-03-01T11:41:04;64439.47;;;12.74;41.01
41636;BME280;27623;51.966;4.602;2023-03-01T12:05:36;64527.16;;;13.47;37.57
41636;BME280;27623;51.966;4.602;2023-03-01T12:08:23;64528.03;;;13.52;37.29
41636;BME280;27623;51.966;4.602;2023-03-01T12:22:35;64580.91;;;14.08;36.46
41636;BME280;27623;51.966;4.602;2023-03-01T12:34:46;64648.88;;;14.60;35.42
41636;BME280;27623;51.966;4.602;2023-03-01T12:44:52;64756.94;;;15.27;33.59
41636;BME280;27623;51.966;4.602;2023-03-01T12:50:19;64771.94;;;15.60;33.21
41636;BME280;27623;51.966;4.602;2023-03-01T12:52:51;64749.91;;;15.37;32.75
41636;BME280;27623;51.966;4.602;2023-03-01T12:55:29;64740.53;;;15.35;33.85
41636;BME280;27623;51.966;4.602;2023-03-01T13:01:00;64748.63;;;15.33;32.92
41636;BME280;27623;51.966;4.602;2023-03-01T13:15:36;64822.56;;;15.88;32.22
41636;BME280;27623;51.966;4.602;2023-03-01T13:18:03;64792.59;;;15.69;33.09
41636;BME280;27623;51.966;4.602;2023-03-01T13:20:46;64803.75;;;15.75;32.52
41636;BME280;27623;51.966;4.602;2023-03-01T13:26:17;64821.03;;;15.96;32.73
41636;BME280;27623;51.966;4.602;2023-03-01T13:28:54;64838.88;;;16.17;32.15
41636;BME280;27623;51.966;4.602;2023-03-01T13:33:54;64863.91;;;16.31;31.71
41636;BME280;27623;51.966;4.602;2023-03-01T13:46:45;64909.31;;;16.80;31.19
41636;BME280;27623;51.966;4.602;2023-03-01T13:49:19;64923.59;;;16.86;31.42
41636;BME280;27623;51.966;4.602;2023-03-01T13:51:49;64946.59;;;17.07;30.90
41636;BME280;27623;51.966;4.602;2023-03-01T13:54:32;64939.09;;;17.03;30.51
41636;BME280;27623;51.966;4.602;2023-03-01T13:56:59;64910.25;;;16.78;31.01
41636;BME280;27623;51.966;4.602;2023-03-01T13:59:25;64973.44;;;17.08;30.55
41636;BME280;27623;51.966;4.602;2023-03-01T14:01:59;64955.53;;;16.94;30.07
41636;BME280;27623;51.966;4.602;2023-03-01T14:04:28;64961.00;;;16.99;30.34
41636;BME280;27623;51.966;4.602;2023-03-01T14:07:19;64999.09;;;17.23;29.43
41636;BME280;27623;51.966;4.602;2023-03-01T14:09:51;64959.06;;;17.33;29.82
41636;BME280;27623;51.966;4.602;2023-03-01T14:12:30;64996.78;;;17.35;29.91
41636;BME280;27623;51.966;4.602;2023-03-01T14:15:06;64973.47;;;17.25;29.16
41636;BME280;27623;51.966;4.602;2023-03-01T14:22:48;65010.53;;;17.64;28.83
41636;BME280;27623;51.966;4.602;2023-03-01T14:27:52;65036.91;;;17.81;28.54
41636;BME280;27623;51.966;4.602;2023-03-01T14:30:22;64980.47;;;17.46;29.06
41636;BME280;27623;51.966;4.602;2023-03-01T14:32:57;65045.34;;;17.84;28.44
41636;BME280;27623;51.966;4.602;2023-03-01T14:35:35;65022.09;;;17.68;29.39
41636;BME280;27623;51.966;4.602;2023-03-01T14:38:01;65052.75;;;17.79;28.55
41636;BME280;27623;51.966;4.602;2023-03-01T14:40:33;65022.81;;;17.88;27.88
41636;BME280;27623;51.966;4.602;2023-03-01T14:43:09;65019.72;;;17.87;28.53
41636;BME280;27623;51.966;4.602;2023-03-01T14:45:36;65068.47;;;17.92;28.48
41636;BME280;27623;51.966;4.602;2023-03-01T14:48:04;65037.06;;;17.84;29.44
41636;BME280;27623;51.966;4.602;2023-03-01T14:50:34;65054.44;;;17.98;29.17
41636;BME280;27623;51.966;4.602;2023-03-01T14:53:02;65047.34;;;18.08;28.36
41636;BME280;27623;51.966;4.602;2023-03-01T14:55:33;65056.69;;;17.93;27.63
41636;BME280;27623;51.966;4.602;2023-03-01T14:58:03;65032.84;;;17.82;28.40
41636;BME280;27623;51.966;4.602;2023-03-01T15:00:31;65047.31;;;17.67;28.70
41636;BME280;27623;51.966;4.602;2023-03-01T15:03:04;65072.19;;;18.09;28.43
41636;BME280;27623;51.966;4.602;2023-03-01T15:05:35;65019.63;;;17.94;28.82
41636;BME280;27623;51.966;4.602;2023-03-01T15:08:02;65049.56;;;17.86;28.66
41636;BME280;27623;51.966;4.602;2023-03-01T15:10:31;65003.72;;;17.63;29.10
41636;BME280;27623;51.966;4.602;2023-03-01T15:13:11;65045.34;;;17.84;28.85
41636;BME280;27623;51.966;4.602;2023-03-01T15:15:46;65002.06;;;17.61;28.87
41636;BME280;27623;51.966;4.602;2023-03-01T15:20:40;64989.63;;;17.52;29.13
41636;BME280;27623;51.966;4.602;2023-03-01T15:23:05;65030.78;;;17.66;28.87
41636;BME280;27623;51.966;4.602;2023-03-01T15:25:32;65010.59;;;17.33;29.44
41636;BME280;27623;51.966;4.602;2023-03-01T15:28:00;64995.16;;;17.50;30.09
41636;BME280;27623;51.966;4.602;2023-03-01T15:30:32;64958.66;;;17.35;29.51